Time;durP1;ratioP1;P1;durP2;ratioP2;P2;SDS_P1;SDS_P2;PMS_P1;PMS_P2;Temp;Humidity;BMP_temperature;BMP_pressure;BME280_temperature;BME280_humidity;BME280_pressure;Samples;Min_cycle;Max_cycle;Signal;HPM_P1;HPM_P2
2023/07/03 00:01:59;;;;;;;10.75;9.05;;;;;;;16.06;97.07;99081.97;5095168;28;20024;-80
2023/07/03 00:04:25;;;;;;;9.90;8.90;;;;;;;16.05;96.81;99080.25;5095874;28;20074;-80
2023/07/03 00:06:51;;;;;;;10.63;9.52;;;;;;;16.04;97.03;99070.72;5095633;28;20048;-80
2023/07/03 00:09:16;;;;;;;14.13;9.05;;;;;;;16.03;96.90;99074.31;5095815;28;20032;-80
2023/07/03 00:11:42;;;;;;;11.25;9.23;;;;;;;15.83;96.92;99052.22;5095492;28;20077;-80
2023/07/03 00:14:07;;;;;;;12.15;8.95;;;;;;;15.78;96.97;99049.94;5095528;28;20580;-80
2023/07/03 00:16:32;;;;;;;10.10;8.98;;;;;;;15.85;97.20;99068.72;5095878;28;20118;-80
2023/07/03 00:18:58;;;;;;;13.07;9.48;;;;;;;15.76;97.17;99058.88;5094887;28;20099;-80
2023/07/03 00:21:25;;;;;;;12.48;8.95;;;;;;;15.83;97.50;99073.22;5095609;28;20028;-80
2023/07/03 00:23:50;;;;;;;13.70;10.07;;;;;;;15.83;97.46;99075.84;5095177;28;20108;-80
2023/07/03 00:26:16;;;;;;;12.77;9.00;;;;;;;15.75;97.36;99063.31;5095122;28;20431;-80
2023/07/03 00:28:41;;;;;;;11.13;9.70;;;;;;;15.65;97.51;99050.06;5094972;28;20060;-80
2023/07/03 00:31:06;;;;;;;10.90;9.30;;;;;;;15.80;97.81;99076.94;5095073;28;20028;-80
2023/07/03 00:33:32;;;;;;;12.13;9.60;;;;;;;15.82;97.84;99080.28;5095435;28;20079;-80
2023/07/03 00:35:57;;;;;;;11.82;9.35;;;;;;;15.82;98.46;99088.16;5094401;28;20512;-80
2023/07/03 00:38:23;;;;;;;14.07;10.27;;;;;;;15.75;98.45;99065.09;5095087;28;20103;-80
2023/07/03 00:40:48;;;;;;;13.65;10.55;;;;;;;15.54;99.25;99034.25;5094704;28;20111;-80
2023/07/03 00:43:14;;;;;;;12.18;9.68;;;;;;;15.71;99.24;99059.25;5094943;28;20016;-80
2023/07/03 00:45:39;;;;;;;13.13;9.68;;;;;;;15.72;99.25;99055.69;5094870;28;20032;-80
2023/07/03 00:48:05;;;;;;;12.05;9.35;;;;;;;15.73;99.30;99059.97;5094650;28;20028;-80
2023/07/03 00:50:32;;;;;;;12.85;9.68;;;;;;;15.82;99.29;99082.06;5094666;28;20032;-80
2023/07/03 00:53:03;;;;;;;12.68;9.57;;;;;;;15.85;99.50;99081.84;5094551;28;20028;-80
2023/07/03 00:55:30;;;;;;;14.60;9.93;;;;;;;15.85;99.92;99089.72;5094713;28;20374;-80
2023/07/03 00:57:55;;;;;;;15.57;9.55;;;;;;;15.63;100.00;99054.59;5094375;28;20028;-80
2023/07/03 01:00:25;;;;;;;12.65;10.23;;;;;;;15.80;100.00;99086.59;5094621;28;20032;-80
2023/07/03 01:02:56;;;;;;;11.60;9.40;;;;;;;15.81;100.00;99091.72;5094378;28;20024;-80
2023/07/03 01:05:27;;;;;;;13.15;9.75;;;;;;;15.70;100.00;99070.72;5094543;28;20028;-80
2023/07/03 01:07:53;;;;;;;10.75;9.63;;;;;;;15.66;100.00;99067.47;5094419;28;20035;-80
2023/07/03 01:10:21;;;;;;;12.02;9.35;;;;;;;15.69;100.00;99069.88;5094398;28;20082;-80
2023/07/03 01:12:51;;;;;;;12.88;10.25;;;;;;;15.84;100.00;99082.75;5093969;28;20361;-80
2023/07/03 01:15:22;;;;;;;13.55;10.65;;;;;;;15.81;100.00;99083.84;5094110;28;20028;-80
2023/07/03 01:17:51;;;;;;;13.77;11.15;;;;;;;15.89;100.00;99085.91;5093945;28;20052;-80
2023/07/03 01:20:19;;;;;;;14.25;11.98;;;;;;;15.93;100.00;99088.16;5094059;28;20115;-80
2023/07/03 01:22:56;;;;;;;14.63;11.60;;;;;;;15.96;100.00;99085.28;5093903;28;20067;-80
2023/07/03 01:25:24;;;;;;;14.32;12.00;;;;;;;15.84;100.00;99065.22;5094054;28;20036;-80
2023/07/03 01:27:52;;;;;;;15.93;10.85;;;;;;;15.98;100.00;99082.56;5093940;28;20028;-80
2023/07/03 01:30:19;;;;;;;12.43;10.98;;;;;;;16.03;100.00;99087.44;5094090;28;20472;-80
2023/07/03 01:32:47;;;;;;;19.15;13.32;;;;;;;15.95;100.00;99072.28;5094108;28;20099;-80
2023/07/03 01:35:15;;;;;;;19.00;14.27;;;;;;;15.87;100.00;99062.38;5093756;28;20657;-80
2023/07/03 01:37:43;;;;;;;19.55;14.48;;;;;;;15.95;100.00;99085.41;5094203;28;20017;-80
2023/07/03 01:40:13;;;;;;;17.52;13.85;;;;;;;15.92;100.00;99086.47;5092958;28;20036;-80
2023/07/03 01:42:40;;;;;;;13.20;11.30;;;;;;;15.80;100.00;99066.44;5093721;28;20020;-80
2023/07/03 01:45:07;;;;;;;16.17;11.65;;;;;;;15.85;100.00;99077.41;5093461;28;20028;-80
2023/07/03 01:47:32;;;;;;;13.23;10.27;;;;;;;15.88;100.00;99084.19;5093726;28;20028;-80
2023/07/03 01:49:58;;;;;;;13.23;10.27;;;;;;;15.73;100.00;99061.78;5093734;28;20043;-80
2023/07/03 01:52:38;;;;;;;13.00;11.02;;;;;;;15.85;100.00;99074.78;5093533;28;20589;-80
2023/07/03 01:55:26;;;;;;;11.90;10.63;;;;;;;15.92;100.00;99088.25;5093358;28;20028;-80
2023/07/03 01:58:19;;;;;;;12.82;10.38;;;;;;;15.82;100.00;99085.53;5090638;28;20064;-80
2023/07/03 02:00:49;;;;;;;13.43;9.60;;;;;;;15.83;100.00;99089.81;5090892;28;20032;-80
2023/07/03 02:03:37;;;;;;;13.27;10.93;;;;;;;15.91;100.00;99091.84;5090914;28;20040;-80
2023/07/03 02:06:10;;;;;;;11.93;10.63;;;;;;;15.87;100.00;99079.91;5090628;28;20028;-80
2023/07/03 02:08:36;;;;;;;11.75;10.35;;;;;;;15.88;100.00;99085.03;5090596;28;20051;-80
2023/07/03 02:11:01;;;;;;;12.55;9.68;;;;;;;15.81;100.00;99067.28;5090298;28;20523;-80
2023/07/03 02:13:27;;;;;;;13.63;10.98;;;;;;;15.90;100.00;99090.19;5090617;28;20487;-80
2023/07/03 02:15:52;;;;;;;11.18;9.85;;;;;;;15.92;100.00;99090.88;5090364;28;20090;-80
2023/07/03 02:18:20;;;;;;;13.65;9.23;;;;;;;15.83;100.00;99066.19;5090308;28;20035;-80
2023/07/03 02:20:49;;;;;;;14.55;9.93;;;;;;;15.92;100.00;99088.25;5090422;28;20395;-80
2023/07/03 02:23:15;;;;;;;12.73;9.48;;;;;;;15.95;100.00;99085.41;5090440;28;20085;-79
2023/07/03 02:25:41;;;;;;;15.68;10.25;;;;;;;16.00;100.00;99085.03;5090504;28;20032;-79
2023/07/03 02:28:07;;;;;;;11.27;9.68;;;;;;;16.04;100.00;99092.56;5090193;28;20067;-79
2023/07/03 02:30:32;;;;;;;14.45;10.45;;;;;;;16.02;100.00;99080.53;5090505;28;20032;-79
2023/07/03 02:32:57;;;;;;;11.75;9.60;;;;;;;15.99;100.00;99067.63;5090304;28;20030;-79
2023/07/03 02:35:24;;;;;;;12.85;9.45;;;;;;;15.97;100.00;99065.13;5092008;28;20075;-79
2023/07/03 02:37:49;;;;;;;11.50;10.30;;;;;;;15.83;100.00;99037.28;5092597;28;20032;-79
2023/07/03 02:40:15;;;;;;;12.40;9.98;;;;;;;16.14;100.00;99096.16;5093074;28;20043;-80
2023/07/03 02:42:40;;;;;;;11.75;10.27;;;;;;;16.10;100.00;99081.59;5092779;28;20032;-79
2023/07/03 02:45:07;;;;;;;14.10;10.02;;;;;;;16.18;100.00;99087.09;5092679;28;20032;-79
2023/07/03 02:47:37;;;;;;;12.95;10.52;;;;;;;16.03;100.00;99062.00;5093319;28;20345;-79
2023/07/03 02:50:03;;;;;;;12.40;10.85;;;;;;;16.14;100.00;99084.81;5092597;28;20031;-79
2023/07/03 02:52:29;;;;;;;13.93;9.93;;;;;;;16.17;100.00;99074.06;5091763;28;20032;-79
2023/07/03 02:54:54;;;;;;;12.35;10.50;;;;;;;16.00;100.00;99054.34;5092286;28;20650;-79
2023/07/03 02:57:19;;;;;;;11.13;9.52;;;;;;;16.16;100.00;99073.22;5092611;28;20024;-79
2023/07/03 02:59:45;;;;;;;15.23;10.18;;;;;;;16.15;100.00;99070.72;5092718;28;20024;-79
2023/07/03 03:02:10;;;;;;;12.63;9.98;;;;;;;15.99;100.00;99043.97;5092469;28;20039;-79
2023/07/03 03:04:36;;;;;;;14.00;10.43;;;;;;;16.03;100.00;99063.81;5092675;28;20380;-79
2023/07/03 03:07:01;;;;;;;13.75;9.25;;;;;;;16.09;100.00;99071.19;5092333;28;20020;-79
2023/07/03 03:09:26;;;;;;;13.38;10.70;;;;;;;16.09;100.00;99071.19;5092555;28;20039;-79
2023/07/03 03:11:52;;;;;;;14.38;10.02;;;;;;;16.15;100.00;99081.22;5091998;28;20020;-79
2023/07/03 03:14:17;;;;;;;18.00;11.48;;;;;;;15.99;100.00;99057.13;5092110;28;20043;-79
2023/07/03 03:16:42;;;;;;;17.33;10.68;;;;;;;15.94;100.00;99049.59;5092343;28;20054;-79
2023/07/03 03:19:07;;;;;;;13.32;10.20;;;;;;;16.01;100.00;99055.19;5092204;28;20027;-79
2023/07/03 03:21:33;;;;;;;12.55;10.75;;;;;;;16.03;100.00;99056.75;5092453;28;20105;-79
2023/07/03 03:23:58;;;;;;;12.27;10.13;;;;;;;16.15;100.00;99073.34;5092120;28;20047;-79
2023/07/03 03:26:24;;;;;;;13.20;10.27;;;;;;;16.02;100.00;99055.09;5092041;28;20113;-79
2023/07/03 03:28:50;;;;;;;14.50;11.32;;;;;;;16.16;100.00;99073.22;5092363;28;20032;-79
2023/07/03 03:31:15;;;;;;;15.25;10.88;;;;;;;16.07;100.00;99063.44;5092080;28;20028;-79
2023/07/03 03:33:41;;;;;;;13.07;10.07;;;;;;;16.04;100.00;99052.34;5092197;28;20028;-79
2023/07/03 03:36:07;;;;;;;14.55;10.80;;;;;;;16.15;100.00;99061.03;5091970;28;20055;-79
2023/07/03 03:38:32;;;;;;;14.77;10.75;;;;;;;16.10;100.00;99051.88;5092269;28;20055;-79
2023/07/03 03:41:01;;;;;;;13.38;9.75;;;;;;;16.28;100.00;99078.47;5091732;28;20059;-79
2023/07/03 03:43:26;;;;;;;13.95;10.15;;;;;;;16.17;100.00;99053.03;5092158;28;20027;-79
2023/07/03 03:45:56;;;;;;;14.45;11.70;;;;;;;16.33;100.00;99081.56;5092099;28;20024;-79
2023/07/03 03:48:21;;;;;;;13.75;10.40;;;;;;;16.16;100.00;99046.94;5092026;28;20024;-79
2023/07/03 03:50:46;;;;;;;13.00;9.93;;;;;;;16.25;100.00;99055.06;5089747;28;20043;-79
2023/07/03 03:53:12;;;;;;;12.20;10.80;;;;;;;16.38;100.00;99074.13;5091769;28;20024;-79
2023/07/03 03:55:37;;;;;;;13.70;11.32;;;;;;;16.38;100.00;99061.00;5092516;28;20375;-79
2023/07/03 03:58:03;;;;;;;13.45;10.95;;;;;;;16.55;100.00;99083.31;5091937;28;20024;-79
2023/07/03 04:00:29;;;;;;;14.32;10.45;;;;;;;16.47;100.00;99068.16;5091893;28;20032;-79
2023/07/03 04:02:55;;;;;;;13.65;10.23;;;;;;;16.64;100.00;99078.16;5092641;28;20062;-79
2023/07/03 04:05:20;;;;;;;13.25;10.88;;;;;;;16.52;100.00;99057.25;5095778;28;20056;-79
2023/07/03 04:07:46;;;;;;;16.65;11.38;;;;;;;16.55;100.00;99060.47;5095428;28;20074;-79
2023/07/03 04:10:11;;;;;;;16.27;10.88;;;;;;;16.71;100.00;99083.75;5095628;28;20110;-79
2023/07/03 04:12:37;;;;;;;13.40;10.15;;;;;;;16.66;98.09;99064.88;5095576;28;20107;-79
2023/07/03 04:15:03;;;;;;;15.93;10.85;;;;;;;16.78;97.29;99071.81;5095314;28;20020;-79
2023/07/03 04:17:28;;;;;;;13.80;11.15;;;;;;;16.75;96.92;99064.16;5095330;28;20027;-79
2023/07/03 04:19:54;;;;;;;13.75;10.10;;;;;;;16.70;96.71;99076.81;5095466;28;20024;-79
2023/07/03 04:22:19;;;;;;;16.98;11.90;;;;;;;16.59;95.63;99055.81;5095111;28;20047;-79
2023/07/03 04:24:44;;;;;;;13.57;10.95;;;;;;;16.60;95.06;99055.72;5095191;28;20024;-79
2023/07/03 04:27:10;;;;;;;12.93;11.27;;;;;;;16.64;95.08;99056.28;5095233;28;20107;-79
2023/07/03 04:29:36;;;;;;;18.17;12.32;;;;;;;16.62;95.00;99045.06;5095366;28;20421;-79
2023/07/03 04:32:02;;;;;;;17.05;10.93;;;;;;;16.78;94.60;99073.59;5095329;28;20028;-79
2023/07/03 04:34:27;;;;;;;15.38;10.65;;;;;;;16.85;94.70;99078.22;5095551;28;20084;-80
2023/07/03 04:36:53;;;;;;;15.13;11.52;;;;;;;16.72;94.85;99051.22;5095400;28;20048;-79
2023/07/03 04:39:18;;;;;;;14.30;10.95;;;;;;;16.84;94.06;99066.03;5094624;28;20092;-79
2023/07/03 04:41:44;;;;;;;14.90;10.82;;;;;;;16.92;93.77;99073.31;5093979;28;20032;-79
2023/07/03 04:44:12;;;;;;;14.07;11.63;;;;;;;16.83;93.66;99051.22;5094568;28;20495;-79
2023/07/03 04:46:38;;;;;;;16.25;11.30;;;;;;;16.95;93.63;99060.75;5094747;28;20048;-79
2023/07/03 04:49:04;;;;;;;15.10;12.85;;;;;;;17.10;93.20;99078.84;5094599;28;20024;-79
2023/07/03 04:51:30;;;;;;;14.77;10.65;;;;;;;17.05;92.83;99052.09;5094800;28;20441;-79
2023/07/03 04:53:57;;;;;;;14.23;9.98;;;;;;;17.13;92.46;99050.47;5094758;28;20059;-79
2023/07/03 04:56:24;;;;;;;14.07;10.95;;;;;;;17.38;92.03;99069.50;5094558;28;20036;-79
2023/07/03 04:58:50;;;;;;;14.20;10.23;;;;;;;17.34;92.31;99066.28;5094724;28;20126;-79
2023/07/03 05:01:16;;;;;;;17.40;11.98;;;;;;;17.20;92.54;99027.97;5094493;28;20455;-79
2023/07/03 05:03:41;;;;;;;16.08;10.85;;;;;;;17.33;93.00;99051.47;5094336;28;20028;-79
2023/07/03 05:06:06;;;;;;;15.65;11.50;;;;;;;17.39;93.25;99058.00;5094223;28;20035;-79
2023/07/03 05:08:32;;;;;;;14.68;10.60;;;;;;;17.36;93.96;99043.31;5094320;28;20060;-79
2023/07/03 05:10:59;;;;;;;11.13;9.57;;;;;;;17.44;93.96;99038.25;5094156;28;20118;-79
2023/07/03 05:13:25;;;;;;;14.43;10.23;;;;;;;17.61;93.08;99049.97;5094587;28;20454;-79
2023/07/03 05:15:50;;;;;;;13.95;9.80;;;;;;;17.87;92.78;99044.28;5093465;28;20020;-79
2023/07/03 05:18:15;;;;;;;12.25;10.77;;;;;;;18.08;92.05;99017.88;5094033;28;20372;-79
2023/07/03 05:20:43;;;;;;;11.98;10.32;;;;;;;18.45;90.77;99047.06;5093997;28;20024;-80
2023/07/03 05:23:08;;;;;;;13.82;10.73;;;;;;;18.61;90.00;99055.28;5094141;28;20027;-79
2023/07/03 05:25:33;;;;;;;13.57;11.00;;;;;;;18.57;89.46;99034.59;5094237;28;20024;-79
2023/07/03 05:27:59;;;;;;;13.18;9.70;;;;;;;18.80;89.58;99046.59;5094131;28;20085;-79
2023/07/03 05:30:24;;;;;;;12.93;10.07;;;;;;;18.67;88.07;99040.75;5093676;28;20032;-80
2023/07/03 05:32:50;;;;;;;15.90;10.77;;;;;;;18.67;88.61;99020.47;5094261;28;20024;-80
2023/07/03 05:35:16;;;;;;;12.82;9.40;;;;;;;18.92;88.06;99042.03;5093365;28;20456;-80
2023/07/03 05:37:41;;;;;;;11.30;9.88;;;;;;;19.04;88.33;99048.81;5093862;28;20081;-80
2023/07/03 05:40:08;;;;;;;13.68;9.50;;;;;;;19.13;88.04;99045.34;5093638;28;20111;-80
2023/07/03 05:42:33;;;;;;;12.80;9.32;;;;;;;19.26;87.64;99052.97;5093836;28;20502;-80
2023/07/03 05:44:59;;;;;;;11.07;9.35;;;;;;;19.34;87.41;99041.69;5093926;28;20032;-80
2023/07/03 05:47:24;;;;;;;12.35;9.32;;;;;;;19.56;86.96;99043.19;5093530;28;20024;-80
2023/07/03 05:49:52;;;;;;;16.08;11.05;;;;;;;19.64;85.13;99038.03;5093802;28;20039;-80
2023/07/03 05:52:17;;;;;;;14.25;10.13;;;;;;;19.89;84.02;99040.03;5093294;28;20067;-80
2023/07/03 05:54:42;;;;;;;12.10;9.52;;;;;;;20.15;83.65;99036.72;5093761;28;20059;-80
2023/07/03 05:57:10;;;;;;;11.68;9.75;;;;;;;20.22;82.42;99015.78;5093359;28;20024;-80
2023/07/03 05:59:37;;;;;;;13.70;10.27;;;;;;;20.35;80.93;99034.75;5093594;28;20039;-80
2023/07/03 06:02:05;;;;;;;11.30;9.65;;;;;;;20.47;80.62;99041.50;5093356;28;20035;-80
2023/07/03 06:04:30;;;;;;;15.45;10.40;;;;;;;20.91;80.30;99066.31;5093335;28;20024;-80
2023/07/03 06:06:56;;;;;;;13.90;10.68;;;;;;;21.40;79.90;99056.13;5093544;28;20531;-80
2023/07/03 06:09:23;;;;;;;13.93;10.43;;;;;;;21.76;77.99;99040.13;5093175;28;20028;-80
2023/07/03 06:11:48;;;;;;;14.45;10.65;;;;;;;22.23;76.13;99041.50;5093125;28;20062;-80
2023/07/03 06:14:17;;;;;;;14.50;9.82;;;;;;;22.77;74.75;99040.16;5092975;28;20048;-80
2023/07/03 06:16:43;;;;;;;14.10;10.70;;;;;;;23.03;72.14;99039.19;5093085;28;20031;-80
2023/07/03 06:19:09;;;;;;;12.68;10.07;;;;;;;23.62;71.98;99056.56;5092643;28;20077;-80
2023/07/03 06:21:35;;;;;;;16.33;10.02;;;;;;;24.01;70.51;99039.03;5090799;28;20545;-80
2023/07/03 06:24:00;;;;;;;14.43;10.82;;;;;;;24.33;67.68;99025.56;5093037;28;20024;-80
2023/07/03 06:26:28;;;;;;;13.32;9.77;;;;;;;24.81;66.10;99041.44;5092615;28;20051;-80
2023/07/03 06:28:53;;;;;;;13.55;10.02;;;;;;;25.45;65.47;99057.09;5092869;28;20028;-80
2023/07/03 06:31:18;;;;;;;16.15;9.45;;;;;;;25.99;62.70;99047.03;5092792;28;20042;-80
2023/07/03 06:33:44;;;;;;;13.38;9.50;;;;;;;26.62;62.04;99042.06;5092867;28;20050;-81
2023/07/03 06:36:10;;;;;;;11.93;9.57;;;;;;;27.43;60.58;99056.00;5092759;28;20044;-80
2023/07/03 06:38:35;;;;;;;12.55;10.63;;;;;;;28.00;58.50;99038.88;5092952;28;20028;-81
2023/07/03 06:41:00;;;;;;;12.38;9.68;;;;;;;28.92;56.61;99048.25;5092703;28;20028;-81
2023/07/03 06:43:26;;;;;;;12.90;9.52;;;;;;;29.68;54.95;99061.28;5092450;28;20498;-81
2023/07/03 06:45:51;;;;;;;12.75;9.32;;;;;;;30.52;53.54;99055.00;5092698;28;20460;-81
2023/07/03 06:48:17;;;;;;;13.30;9.55;;;;;;;32.16;51.84;99057.63;5092342;28;20109;-81
2023/07/03 06:50:42;;;;;;;12.65;9.75;;;;;;;33.06;49.44;99059.53;5092947;28;20375;-81
2023/07/03 06:53:07;;;;;;;13.00;9.77;;;;;;;33.66;47.97;99040.44;5092485;28;20027;-81
2023/07/03 06:55:33;;;;;;;11.07;9.35;;;;;;;34.89;46.14;99027.50;5092668;28;20089;-81
2023/07/03 06:58:00;;;;;;;12.95;9.70;;;;;;;36.27;43.83;99048.50;5092525;28;20020;-81
2023/07/03 07:00:26;;;;;;;12.60;9.77;;;;;;;37.20;42.40;99046.44;5092403;28;20035;-81
2023/07/03 07:02:51;;;;;;;11.93;9.60;;;;;;;37.89;41.03;99035.53;5092473;28;20024;-81
2023/07/03 07:05:16;;;;;;;12.07;9.95;;;;;;;37.73;40.49;99016.66;5092352;28;20115;-81
2023/07/03 07:07:42;;;;;;;11.77;10.55;;;;;;;37.85;39.92;99028.97;5092519;28;20055;-81
2023/07/03 07:10:08;;;;;;;15.18;9.82;;;;;;;38.30;39.81;99040.28;5092023;28;20034;-81
2023/07/03 07:12:33;;;;;;;11.82;10.20;;;;;;;38.81;39.29;99041.28;5092270;28;20127;-81
2023/07/03 07:14:59;;;;;;;11.15;9.88;;;;;;;39.60;37.96;99033.56;5092480;28;20531;-81
2023/07/03 07:17:24;;;;;;;11.70;10.02;;;;;;;40.26;36.87;99030.63;5091757;28;20049;-82
2023/07/03 07:19:49;;;;;;;11.15;9.98;;;;;;;39.76;35.91;99013.38;5092511;28;20460;-81
2023/07/03 07:22:15;;;;;;;11.10;9.98;;;;;;;40.35;36.47;99004.38;5091995;28;20024;-81
2023/07/03 07:24:40;;;;;;;13.30;9.95;;;;;;;40.32;36.12;99007.66;5092105;28;20016;-82
2023/07/03 07:27:06;;;;;;;12.35;10.07;;;;;;;39.94;35.86;99005.69;5092466;28;20031;-80
2023/07/03 07:29:31;;;;;;;14.48;10.25;;;;;;;38.79;36.43;99013.50;5092425;28;20031;-81
2023/07/03 07:31:57;;;;;;;15.02;10.48;;;;;;;38.02;36.55;99028.78;5092372;28;20615;-82
2023/07/03 07:34:23;;;;;;;11.27;8.88;;;;;;;36.87;37.95;99010.34;5092020;28;20027;-79
2023/07/03 07:36:49;;;;;;;14.55;10.35;;;;;;;36.97;38.36;99007.75;5092160;28;20044;-79
2023/07/03 07:39:14;;;;;;;11.50;10.30;;;;;;;37.60;37.51;99015.25;5095042;28;20024;-79
2023/07/03 07:41:40;;;;;;;13.02;9.85;;;;;;;38.55;36.89;99012.34;5084458;28;20031;-79
2023/07/03 07:44:05;;;;;;;12.48;10.65;;;;;;;38.89;36.19;99021.66;5076104;28;20160;-80
2023/07/03 07:46:33;;;;;;;11.55;9.35;;;;;;;39.70;35.72;99011.78;5075598;28;20447;-80
2023/07/03 07:49:00;;;;;;;12.15;10.32;;;;;;;40.71;35.36;99015.09;5075643;28;20040;-80
2023/07/03 07:51:26;;;;;;;11.27;9.93;;;;;;;41.59;34.89;99014.03;5075648;28;20028;-80
2023/07/03 07:53:52;;;;;;;12.02;9.82;;;;;;;41.93;34.58;99013.13;5075711;28;20074;-80
2023/07/03 07:56:18;;;;;;;12.68;10.63;;;;;;;42.25;33.82;99004.22;5080753;28;20172;-80
2023/07/03 07:58:44;;;;;;;11.70;10.40;;;;;;;42.14;33.37;99005.41;5091641;28;20471;-80
2023/07/03 08:01:14;;;;;;;15.60;11.27;;;;;;;42.19;33.33;99005.38;5094434;28;20040;-80
2023/07/03 08:03:40;;;;;;;19.02;11.68;;;;;;;41.51;33.64;98992.81;5094592;28;20020;-80
2023/07/03 08:06:05;;;;;;;12.57;10.45;;;;;;;39.75;34.94;98989.94;5094290;28;20395;-80
2023/07/03 08:08:31;;;;;;;12.48;11.05;;;;;;;39.09;35.54;98982.69;5093788;28;20081;-81
2023/07/03 08:10:59;;;;;;;11.63;10.43;;;;;;;37.60;36.11;98986.16;5093999;28;20059;-80
2023/07/03 08:13:26;;;;;;;11.70;10.50;;;;;;;36.62;36.72;98996.53;5093867;28;20442;-80
2023/07/03 08:15:51;;;;;;;12.80;10.77;;;;;;;36.41;37.06;98971.09;5093705;28;20036;-81
2023/07/03 08:18:19;;;;;;;12.60;10.80;;;;;;;35.27;37.86;98991.63;5094128;28;20288;-81
2023/07/03 08:20:45;;;;;;;12.45;10.65;;;;;;;34.68;38.98;98993.84;5095211;28;20024;-81
2023/07/03 08:23:10;;;;;;;13.10;10.68;;;;;;;34.03;39.91;98994.25;5095369;28;20028;-81
2023/07/03 08:25:36;;;;;;;13.98;10.27;;;;;;;33.05;40.28;98979.66;5095509;28;20065;-81
2023/07/03 08:28:01;;;;;;;14.80;11.95;;;;;;;31.86;41.33;98960.59;5095207;28;20029;-81
2023/07/03 08:30:28;;;;;;;12.60;10.82;;;;;;;31.05;42.42;98975.88;5095154;28;20487;-81
2023/07/03 08:32:53;;;;;;;13.73;11.07;;;;;;;30.54;44.28;98993.81;5095211;28;20020;-81
2023/07/03 08:35:19;;;;;;;14.70;11.35;;;;;;;29.99;44.56;98992.63;5093701;28;20455;-80
2023/07/03 08:37:44;;;;;;;14.05;11.48;;;;;;;29.43;45.75;98943.03;5095015;28;20024;-80
2023/07/03 08:40:15;;;;;;;15.05;11.40;;;;;;;29.44;46.35;98976.84;5095563;28;20031;-80
2023/07/03 08:43:01;;;;;;;;;;;;;;;29.21;46.39;98977.31;5095519;28;20518;-80
2023/07/03 08:45:44;;;;;;;13.65;11.63;;;;;;;29.22;46.70;98975.47;5094434;28;19908;-80
2023/07/03 08:48:23;;;;;;;14.70;11.52;;;;;;;28.90;46.16;98967.19;5093595;28;20051;-80
2023/07/03 08:50:54;;;;;;;16.48;12.38;;;;;;;28.52;47.22;98943.66;5091785;28;20024;-80
2023/07/03 08:53:23;;;;;;;15.88;11.95;;;;;;;28.37;47.90;98963.66;5093481;28;20089;-81
2023/07/03 08:55:57;;;;;;;13.80;11.30;;;;;;;28.43;47.93;98976.22;5093156;28;20030;-79
2023/07/03 08:58:22;;;;;;;16.80;12.02;;;;;;;28.30;49.18;98959.06;5093500;28;20020;-79
2023/07/03 09:01:04;;;;;;;14.07;11.48;;;;;;;28.67;49.28;98980.19;5094962;28;20073;-79
2023/07/03 09:03:58;;;;;;;14.63;11.30;;;;;;;28.92;48.88;98983.91;5094814;28;20111;-80
2023/07/03 09:06:42;;;;;;;15.27;11.30;;;;;;;28.94;49.21;98981.81;5091838;28;20553;-79
2023/07/03 09:09:14;;;;;;;15.20;11.07;;;;;;;28.75;48.35;98993.38;5092327;28;20043;-79
2023/07/03 09:11:45;;;;;;;14.75;11.02;;;;;;;27.95;48.61;98955.66;5092381;28;20097;-79
2023/07/03 09:14:18;;;;;;;13.07;10.93;;;;;;;27.83;49.66;98984.03;5092540;28;20119;-79
2023/07/03 09:16:46;;;;;;;15.30;11.80;;;;;;;27.63;50.72;98993.75;5092132;28;20032;-79
2023/07/03 09:19:24;;;;;;;14.45;11.32;;;;;;;27.40;50.99;98986.03;5091981;28;20086;-80
2023/07/03 09:21:53;;;;;;;15.80;11.45;;;;;;;27.43;51.27;99001.66;5091908;28;20149;-80
2023/07/03 09:24:25;;;;;;;14.27;11.70;;;;;;;27.52;50.87;98995.97;5091692;28;20127;-80
2023/07/03 09:27:05;;;;;;;17.55;12.48;;;;;;;27.41;51.12;98974.28;5091792;28;20031;-80
2023/07/03 09:29:34;;;;;;;16.88;11.43;;;;;;;27.42;50.37;98965.25;5091567;28;20040;-80
2023/07/03 09:31:59;;;;;;;18.88;13.15;;;;;;;27.42;50.42;98971.41;5092090;28;20028;-80
2023/07/03 09:34:24;;;;;;;16.83;12.25;;;;;;;27.61;49.58;99000.13;5091513;28;20028;-80
2023/07/03 09:37:00;;;;;;;18.75;12.55;;;;;;;27.40;47.81;98972.66;5091530;28;20055;-80
2023/07/03 09:39:26;;;;;;;19.05;12.95;;;;;;;27.47;48.28;99001.06;5091579;28;20063;-80
2023/07/03 09:41:53;;;;;;;19.40;12.63;;;;;;;27.42;47.82;98989.31;5091826;28;20089;-80
2023/07/03 09:44:21;;;;;;;18.25;12.13;;;;;;;27.28;48.62;98985.72;5094032;28;20471;-80
2023/07/03 09:46:47;;;;;;;18.83;12.75;;;;;;;27.27;49.21;98984.09;5094034;28;20026;-80
2023/07/03 09:49:19;;;;;;;16.10;12.77;;;;;;;27.26;49.18;98993.09;5093898;28;20032;-80
2023/07/03 09:51:49;;;;;;;18.45;13.38;;;;;;;27.33;48.44;98988.63;5093671;28;20032;-80
2023/07/03 09:54:25;;;;;;;17.60;12.85;;;;;;;27.40;48.66;98986.03;5094072;28;20032;-80
2023/07/03 09:56:51;;;;;;;17.00;13.07;;;;;;;27.49;48.68;98987.50;5093512;28;20024;-80
2023/07/03 09:59:20;;;;;;;19.20;12.65;;;;;;;27.55;47.42;99003.59;5093402;28;20031;-80
2023/07/03 10:01:47;;;;;;;19.05;12.25;;;;;;;27.27;47.05;98979.56;5092883;28;20035;-80
2023/07/03 10:04:14;;;;;;;18.48;13.52;;;;;;;27.15;48.00;98988.31;5093348;28;20496;-80
2023/07/03 10:06:51;;;;;;;15.15;12.20;;;;;;;27.09;48.97;99004.13;5093194;28;20401;-80
2023/07/03 10:09:19;;;;;;;17.27;12.65;;;;;;;26.93;48.69;98999.00;5092873;28;20395;-80
2023/07/03 10:12:02;;;;;;;18.38;12.98;;;;;;;26.80;49.70;98981.03;5093469;28;20486;-80
2023/07/03 10:14:44;;;;;;;19.45;12.45;;;;;;;27.00;49.33;98991.84;5092923;28;20499;-80
2023/07/03 10:17:13;;;;;;;18.00;12.65;;;;;;;27.04;49.15;98984.28;5093432;28;20032;-80
2023/07/03 10:19:49;;;;;;;15.48;11.60;;;;;;;27.14;49.41;98994.66;5092812;28;20036;-80
2023/07/03 10:22:16;;;;;;;20.75;11.65;;;;;;;27.10;49.74;98987.03;5093053;28;20028;-81
2023/07/03 10:24:43;;;;;;;20.23;12.57;;;;;;;27.11;49.39;98994.03;5092814;28;20023;-80
2023/07/03 10:27:08;;;;;;;15.45;11.38;;;;;;;27.04;49.83;98979.75;5092667;28;20472;-80
2023/07/03 10:29:41;;;;;;;17.35;12.00;;;;;;;27.04;49.78;98978.94;5092862;28;20208;-80
2023/07/03 10:32:13;;;;;;;17.13;11.88;;;;;;;27.11;49.33;98993.22;5092863;28;20047;-81
2023/07/03 10:35:10;;;;;;;16.13;11.07;;;;;;;27.05;49.18;99007.31;5092505;28;20024;-81
2023/07/03 10:37:45;;;;;;;14.43;11.60;;;;;;;26.93;49.17;98977.63;5092379;28;20032;-81
2023/07/03 10:40:17;;;;;;;19.63;12.13;;;;;;;27.02;49.37;98992.50;5092614;28;20028;-81
2023/07/03 10:42:56;;;;;;;17.23;11.85;;;;;;;27.02;48.33;99005.88;5092739;28;20040;-81
2023/07/03 10:45:24;;;;;;;15.70;10.73;;;;;;;26.86;47.66;98995.44;5092472;28;20027;-81
2023/07/03 10:47:54;;;;;;;18.45;11.27;;;;;;;27.01;48.00;99006.03;5092526;28;20105;-81
2023/07/03 10:50:28;;;;;;;15.83;11.30;;;;;;;27.04;47.54;99016.34;5092609;28;20353;-81
2023/07/03 10:53:24;;;;;;;15.23;10.93;;;;;;;27.05;48.40;99015.31;5092534;28;20487;-81
2023/07/03 10:56:16;;;;;;;19.13;11.82;;;;;;;26.95;48.51;99010.31;5092542;28;20044;-81
2023/07/03 10:58:50;;;;;;;18.60;11.80;;;;;;;27.00;49.31;99018.56;5092488;28;20027;-81
2023/07/03 11:01:39;;;;;;;18.33;12.02;;;;;;;26.93;49.55;99033.75;5092566;28;20039;-81
2023/07/03 11:04:29;;;;;;;17.13;11.77;;;;;;;26.91;48.60;99017.06;5092422;28;20077;-81
2023/07/03 11:07:36;;;;;;;15.70;11.63;;;;;;;27.03;49.24;99031.56;5092486;28;20035;-81
2023/07/03 11:10:37;;;;;;;17.10;11.75;;;;;;;27.09;49.60;99027.28;5092385;28;20289;-81
2023/07/03 11:13:10;;;;;;;18.58;12.55;;;;;;;26.94;50.20;99015.88;5089111;28;20396;-81
2023/07/03 11:15:44;;;;;;;15.52;11.95;;;;;;;27.04;50.68;99024.38;5089813;28;20054;-81
2023/07/03 11:18:16;;;;;;;15.63;11.20;;;;;;;26.89;49.96;99021.78;5089749;28;20135;-81
2023/07/03 11:20:42;;;;;;;16.10;10.80;;;;;;;26.82;47.80;99040.41;5089670;28;20614;-81
2023/07/03 11:23:10;;;;;;;17.67;10.90;;;;;;;26.64;48.90;99031.19;5090050;28;20158;-81